createdAt,value
2022-11-29T00:01:38.746Z,94.41
2022-11-29T00:04:05.302Z,94.33
2022-11-29T00:06:33.072Z,94.22
2022-11-29T00:09:01.846Z,94.51
2022-11-29T00:11:48.806Z,94.45
2022-11-29T00:14:18.050Z,94.49
2022-11-29T00:16:45.055Z,94.88
2022-11-29T00:19:12.856Z,94.92
2022-11-29T00:21:39.291Z,95.18
2022-11-29T00:24:06.035Z,95.09
2022-11-29T00:26:32.502Z,95.13
2022-11-29T00:28:59.363Z,94.94
2022-11-29T00:31:30.310Z,94.77
2022-11-29T00:33:57.729Z,94.80
2022-11-29T00:36:24.448Z,94.72
2022-11-29T00:38:51.126Z,94.68
2022-11-29T00:41:17.739Z,95.05
2022-11-29T00:43:44.165Z,94.79
2022-11-29T00:46:10.918Z,95.10
2022-11-29T00:48:37.468Z,95.26
2022-11-29T00:51:04.879Z,95.43
2022-11-29T00:53:31.754Z,95.78
2022-11-29T00:55:58.253Z,95.85
2022-11-29T00:58:24.834Z,95.72
2022-11-29T01:00:53.248Z,95.73
2022-11-29T01:03:19.975Z,95.80
2022-11-29T01:05:46.569Z,96.08
2022-11-29T01:08:13.396Z,95.94
2022-11-29T01:10:40.002Z,96.23
2022-11-29T01:13:06.826Z,96.33
2022-11-29T01:15:33.340Z,96.39
2022-11-29T01:17:59.782Z,96.26
2022-11-29T01:20:26.976Z,96.51
2022-11-29T01:22:53.771Z,96.61
2022-11-29T01:25:20.257Z,96.60
2022-11-29T01:27:46.870Z,96.55
2022-11-29T01:30:13.433Z,96.69
2022-11-29T01:32:39.833Z,96.60
2022-11-29T01:35:06.932Z,96.68
2022-11-29T01:37:33.420Z,96.64
2022-11-29T01:39:59.933Z,96.55
2022-11-29T01:42:26.499Z,96.63
2022-11-29T01:45:20.034Z,96.76
2022-11-29T01:47:47.700Z,96.79
2022-11-29T01:50:14.520Z,97.15
2022-11-29T01:52:41.399Z,96.83
2022-11-29T01:55:09.656Z,96.94
2022-11-29T01:57:38.896Z,97.07
2022-11-29T02:00:09.872Z,96.79
2022-11-29T02:02:52.351Z,96.75
2022-11-29T02:05:20.012Z,96.91
2022-11-29T02:07:48.833Z,96.86
2022-11-29T02:10:15.675Z,97.08
2022-11-29T02:13:01.197Z,97.08
2022-11-29T02:15:49.474Z,97.25
2022-11-29T02:18:38.676Z,97.18
2022-11-29T02:21:26.556Z,96.87
2022-11-29T02:24:05.037Z,96.78
2022-11-29T02:27:08.794Z,96.84
2022-11-29T02:30:00.320Z,96.54
2022-11-29T02:32:48.249Z,96.09
2022-11-29T02:35:48.931Z,96.02
2022-11-29T02:38:36.273Z,95.79
2022-11-29T02:41:21.599Z,96.12
2022-11-29T02:44:18.389Z,96.03
2022-11-29T02:47:21.909Z,96.04
2022-11-29T02:50:08.210Z,95.93
2022-11-29T02:52:59.076Z,95.83
2022-11-29T02:55:38.793Z,95.85
2022-11-29T02:58:19.374Z,95.88
2022-11-29T03:01:23.391Z,96.15
2022-11-29T03:04:27.102Z,96.16
2022-11-29T03:07:03.895Z,96.13
2022-11-29T03:09:42.729Z,96.33
2022-11-29T03:12:32.203Z,96.37
2022-11-29T03:15:01.602Z,96.76
2022-11-29T03:17:27.844Z,96.47
2022-11-29T03:20:21.237Z,96.46
2022-11-29T03:23:06.872Z,96.44
2022-11-29T03:25:38.498Z,96.62
2022-11-29T03:28:11.294Z,96.75
2022-11-29T03:30:41.014Z,96.95
2022-11-29T03:33:25.010Z,97.13
2022-11-29T03:36:00.748Z,97.18
2022-11-29T03:38:36.551Z,97.54
2022-11-29T03:41:18.424Z,97.59
2022-11-29T03:43:55.194Z,97.59
2022-11-29T03:46:39.556Z,97.35
2022-11-29T03:49:16.853Z,97.54
2022-11-29T03:51:58.715Z,97.61
2022-11-29T03:54:32.847Z,97.60
2022-11-29T03:56:59.677Z,97.44
2022-11-29T03:59:40.382Z,97.55
2022-11-29T04:02:21.904Z,97.28
2022-11-29T04:05:12.663Z,97.38
2022-11-29T04:08:04.789Z,97.34
2022-11-29T04:10:56.044Z,97.36
2022-11-29T04:14:14.731Z,97.21
2022-11-29T04:17:10.017Z,97.10
2022-11-29T04:19:55.337Z,97.12
2022-11-29T04:22:33.212Z,97.16
2022-11-29T04:25:18.700Z,97.02
2022-11-29T04:28:10.113Z,97.29
2022-11-29T04:31:11.864Z,97.10
2022-11-29T04:33:50.099Z,97.18
2022-11-29T04:36:49.027Z,97.02
2022-11-29T04:39:40.200Z,96.57
2022-11-29T04:42:14.908Z,96.54
2022-11-29T04:44:53.415Z,96.67
2022-11-29T04:47:28.814Z,96.94
2022-11-29T04:49:55.386Z,97.04
2022-11-29T04:53:03.513Z,97.14
2022-11-29T04:55:59.306Z,97.18
2022-11-29T04:58:46.235Z,97.51
2022-11-29T05:01:41.366Z,97.76
2022-11-29T05:04:19.487Z,97.72
2022-11-29T05:06:52.050Z,98.14
2022-11-29T05:09:42.323Z,97.79
2022-11-29T05:12:35.146Z,98.05
2022-11-29T05:15:07.675Z,98.10
2022-11-29T05:17:46.787Z,98.14
2022-11-29T05:20:24.313Z,98.10
2022-11-29T05:23:33.861Z,97.78
2022-11-29T05:26:15.897Z,97.96
2022-11-29T05:29:06.986Z,97.75
2022-11-29T05:31:39.647Z,97.67
2022-11-29T05:34:34.545Z,97.91
2022-11-29T05:37:01.508Z,98.06
2022-11-29T05:39:42.054Z,97.88
2022-11-29T05:42:32.888Z,97.80
2022-11-29T05:45:14.691Z,97.83
2022-11-29T05:47:57.269Z,97.89
2022-11-29T05:50:37.592Z,98.34
2022-11-29T05:53:25.927Z,98.21
2022-11-29T05:56:08.788Z,98.22
2022-11-29T05:58:50.342Z,98.20
2022-11-29T06:01:45.329Z,98.35
2022-11-29T06:04:14.776Z,98.50
2022-11-29T06:06:50.389Z,98.43
2022-11-29T06:09:17.388Z,98.37
2022-11-29T06:11:50.646Z,98.22
2022-11-29T06:14:35.974Z,98.27
2022-11-29T06:17:15.304Z,98.00
2022-11-29T06:19:48.047Z,98.24
2022-11-29T06:22:48.868Z,98.15
2022-11-29T06:26:04.076Z,97.94
2022-11-29T06:28:49.147Z,98.02
2022-11-29T06:31:27.419Z,98.08
2022-11-29T06:33:59.807Z,97.95
2022-11-29T06:36:36.260Z,97.99
2022-11-29T06:39:03.129Z,97.67
2022-11-29T06:41:29.867Z,97.75
2022-11-29T06:43:56.598Z,97.80
2022-11-29T06:46:25.952Z,98.24
2022-11-29T06:49:11.149Z,98.33
2022-11-29T06:52:11.420Z,98.18
2022-11-29T06:54:50.068Z,98.07
2022-11-29T06:57:28.630Z,98.00
2022-11-29T07:00:15.911Z,98.03
2022-11-29T07:03:01.345Z,98.08
2022-11-29T07:05:31.220Z,98.03
2022-11-29T07:08:02.382Z,98.01
2022-11-29T07:10:31.909Z,97.64
2022-11-29T07:12:58.672Z,97.67
2022-11-29T07:15:25.574Z,97.78
2022-11-29T07:18:01.114Z,98.14
2022-11-29T07:20:54.240Z,98.39
2022-11-29T07:23:45.362Z,98.55
2022-11-29T07:26:30.057Z,98.15
2022-11-29T07:29:06.758Z,98.24
2022-11-29T07:31:42.266Z,98.02
2022-11-29T07:34:17.554Z,98.06
2022-11-29T07:37:14.673Z,98.09
2022-11-29T07:40:05.767Z,98.06
2022-11-29T07:42:52.257Z,97.73
2022-11-29T07:45:31.809Z,97.60
2022-11-29T07:47:58.997Z,97.54
2022-11-29T07:50:26.937Z,97.38
2022-11-29T07:52:54.178Z,97.01
2022-11-29T07:55:22.151Z,97.12
2022-11-29T07:57:49.300Z,97.25
2022-11-29T08:00:17.229Z,97.45
2022-11-29T08:02:44.128Z,97.49
2022-11-29T08:05:10.880Z,97.72
2022-11-29T08:07:38.597Z,97.75
2022-11-29T08:10:07.552Z,97.84
2022-11-29T08:12:34.092Z,97.89
2022-11-29T08:15:01.510Z,97.69
2022-11-29T08:17:27.997Z,98.08
2022-11-29T08:19:54.495Z,97.94
2022-11-29T08:22:20.979Z,97.91
2022-11-29T08:24:47.765Z,97.69
2022-11-29T08:27:14.459Z,97.72
2022-11-29T08:29:40.968Z,97.77
2022-11-29T08:32:08.844Z,97.63
2022-11-29T08:34:35.288Z,97.35
2022-11-29T08:37:01.679Z,97.42
2022-11-29T08:39:28.087Z,97.52
2022-11-29T08:41:54.470Z,97.38
2022-11-29T08:44:20.930Z,97.29
2022-11-29T08:47:06.037Z,97.47
2022-11-29T08:49:32.865Z,97.04
2022-11-29T08:52:18.099Z,97.19
2022-11-29T08:54:44.940Z,97.00
2022-11-29T08:57:38.577Z,97.06
2022-11-29T08:59:58.004Z,97.00
2022-11-29T09:02:24.489Z,96.97
2022-11-29T09:04:50.959Z,96.92
2022-11-29T09:07:17.909Z,96.96
2022-11-29T09:09:44.397Z,97.08
2022-11-29T09:12:10.801Z,97.21
2022-11-29T09:14:37.237Z,97.21
2022-11-29T09:17:03.641Z,97.06
2022-11-29T09:19:30.220Z,96.84
2022-11-29T09:21:56.839Z,96.71
2022-11-29T09:24:23.359Z,96.35
2022-11-29T09:26:49.866Z,96.18
2022-11-29T09:29:17.419Z,96.34
2022-11-29T09:31:45.192Z,96.03
2022-11-29T09:34:15.940Z,96.04
2022-11-29T09:36:44.026Z,96.15
2022-11-29T09:39:12.346Z,96.10
2022-11-29T09:41:44.286Z,96.15
2022-11-29T09:44:27.312Z,96.55
2022-11-29T09:47:08.362Z,96.55
2022-11-29T09:49:55.566Z,96.77
2022-11-29T09:52:55.225Z,96.85
2022-11-29T09:55:43.109Z,97.10
2022-11-29T09:58:13.458Z,97.08
2022-11-29T10:00:49.711Z,96.95
2022-11-29T10:03:26.615Z,97.06
2022-11-29T10:06:01.120Z,96.91
2022-11-29T10:08:34.108Z,96.93
2022-11-29T10:11:21.201Z,96.97
2022-11-29T10:13:52.315Z,96.92
2022-11-29T10:16:40.995Z,96.76
2022-11-29T10:19:07.821Z,96.60
2022-11-29T10:21:36.801Z,96.35
2022-11-29T10:24:08.982Z,96.48
2022-11-29T10:26:35.714Z,96.58
2022-11-29T10:29:02.312Z,96.34
2022-11-29T10:31:32.543Z,96.57
2022-11-29T10:34:01.044Z,96.54
2022-11-29T10:36:44.503Z,96.50
2022-11-29T10:39:22.504Z,96.56
2022-11-29T10:41:55.760Z,96.67
2022-11-29T10:44:22.631Z,96.51
2022-11-29T10:46:49.105Z,96.17
2022-11-29T10:49:18.745Z,96.07
2022-11-29T10:51:48.354Z,96.14
2022-11-29T10:54:28.915Z,96.19
2022-11-29T10:56:57.201Z,96.29
2022-11-29T10:59:25.810Z,96.40
2022-11-29T11:01:52.409Z,96.39
2022-11-29T11:04:28.719Z,96.44
2022-11-29T11:07:00.139Z,96.67
2022-11-29T11:09:36.256Z,96.80
2022-11-29T11:12:08.520Z,96.74
2022-11-29T11:14:37.575Z,96.85
2022-11-29T11:17:25.904Z,96.78
2022-11-29T11:19:58.578Z,96.68
2022-11-29T11:22:25.779Z,96.87
2022-11-29T11:24:58.388Z,96.94
2022-11-29T11:27:30.073Z,96.92
2022-11-29T11:29:56.698Z,96.98
2022-11-29T11:32:23.218Z,97.03
2022-11-29T11:34:57.876Z,96.91
2022-11-29T11:37:29.869Z,97.07
2022-11-29T11:39:59.662Z,97.09
2022-11-29T11:42:36.983Z,96.95
2022-11-29T11:45:11.880Z,96.95
2022-11-29T11:47:47.282Z,97.13
2022-11-29T11:50:16.612Z,96.80
2022-11-29T11:52:50.593Z,96.52
2022-11-29T11:55:38.343Z,96.33
2022-11-29T11:58:09.740Z,96.29
2022-11-29T12:01:05.498Z,96.10
2022-11-29T12:03:57.587Z,96.07
2022-11-29T12:06:27.707Z,96.29
2022-11-29T12:09:03.845Z,96.42
2022-11-29T12:11:55.306Z,96.68
2022-11-29T12:14:28.570Z,96.81
2022-11-29T12:17:03.525Z,96.88
2022-11-29T12:19:36.048Z,96.67
2022-11-29T12:22:07.209Z,96.71
2022-11-29T12:24:51.179Z,96.66
2022-11-29T12:27:17.833Z,96.71
2022-11-29T12:29:44.298Z,96.42
2022-11-29T12:32:24.529Z,96.37
2022-11-29T12:35:19.038Z,96.17
2022-11-29T12:38:08.797Z,96.17
2022-11-29T12:40:51.099Z,96.12
2022-11-29T12:43:35.535Z,95.97
2022-11-29T12:46:12.774Z,95.95
2022-11-29T12:49:05.900Z,96.05
2022-11-29T12:51:41.849Z,96.21
2022-11-29T12:54:26.538Z,96.24
2022-11-29T12:57:15.082Z,96.55
2022-11-29T13:00:11.714Z,96.35
2022-11-29T13:02:45.341Z,96.51
2022-11-29T13:05:33.855Z,96.79
2022-11-29T13:08:11.043Z,96.72
2022-11-29T13:10:52.391Z,96.62
2022-11-29T13:13:24.639Z,96.43
2022-11-29T13:15:54.112Z,96.52
2022-11-29T13:18:57.318Z,96.42
2022-11-29T13:21:39.383Z,96.28
2022-11-29T13:24:11.812Z,96.36
2022-11-29T13:26:39.387Z,96.28
2022-11-29T13:29:06.750Z,96.18
2022-11-29T13:31:33.480Z,96.27
2022-11-29T13:34:10.178Z,96.89
2022-11-29T13:36:42.705Z,96.76
2022-11-29T13:39:15.312Z,96.73
2022-11-29T13:41:49.154Z,97.00
2022-11-29T13:44:18.210Z,97.24
2022-11-29T13:47:03.481Z,96.75
2022-11-29T13:49:52.746Z,96.58
2022-11-29T13:52:38.370Z,96.29
2022-11-29T13:55:05.951Z,95.99
2022-11-29T13:58:16.369Z,96.04
2022-11-29T14:00:43.789Z,96.07
2022-11-29T14:03:28.597Z,96.00
2022-11-29T14:06:08.497Z,96.19
2022-11-29T14:09:17.897Z,96.22
2022-11-29T14:11:50.826Z,96.22
2022-11-29T14:14:17.200Z,96.21
2022-11-29T14:16:43.499Z,96.20
2022-11-29T14:19:10.034Z,96.65
2022-11-29T14:22:04.561Z,96.34
2022-11-29T14:24:37.001Z,96.24
2022-11-29T14:27:06.359Z,96.04
2022-11-29T14:29:53.895Z,96.19
2022-11-29T14:32:28.503Z,96.25
2022-11-29T14:34:59.352Z,96.42
2022-11-29T14:37:33.818Z,96.67
2022-11-29T14:40:02.417Z,96.88
2022-11-29T14:42:29.185Z,96.99
2022-11-29T14:44:58.391Z,96.92
2022-11-29T14:47:38.731Z,97.23
2022-11-29T14:50:08.852Z,97.30
2022-11-29T14:52:37.996Z,97.10
2022-11-29T14:55:27.444Z,97.11
2022-11-29T14:57:55.246Z,97.09
2022-11-29T15:00:24.395Z,97.02
2022-11-29T15:02:55.223Z,97.15
2022-11-29T15:05:31.954Z,96.79
2022-11-29T15:08:15.055Z,96.91
2022-11-29T15:10:44.619Z,96.83
2022-11-29T15:13:14.110Z,96.67
2022-11-29T15:16:00.912Z,96.83
2022-11-29T15:18:59.407Z,96.79
2022-11-29T15:21:38.348Z,97.07
2022-11-29T15:24:13.892Z,97.21
2022-11-29T15:26:55.459Z,97.26
2022-11-29T15:29:22.066Z,97.50
2022-11-29T15:32:00.896Z,97.53
2022-11-29T15:34:45.531Z,97.60
2022-11-29T15:37:39.455Z,97.56
2022-11-29T15:40:17.724Z,97.45
2022-11-29T15:42:47.070Z,97.64
2022-11-29T15:45:22.521Z,97.71
2022-11-29T15:47:49.242Z,97.56
2022-11-29T15:50:32.571Z,97.34
2022-11-29T15:53:02.873Z,97.04
2022-11-29T15:55:29.595Z,96.83
2022-11-29T15:57:58.151Z,96.75
2022-11-29T16:00:26.514Z,96.80
2022-11-29T16:03:19.966Z,96.88
2022-11-29T16:05:49.618Z,96.81
2022-11-29T16:08:19.302Z,96.86
2022-11-29T16:10:49.439Z,96.99
2022-11-29T16:13:25.093Z,96.84
2022-11-29T16:16:12.698Z,96.95
2022-11-29T16:18:40.944Z,97.00
2022-11-29T16:21:22.173Z,97.16
2022-11-29T16:23:48.685Z,96.93
2022-11-29T16:26:22.422Z,96.99
2022-11-29T16:28:51.816Z,96.80
2022-11-29T16:31:18.420Z,96.87
2022-11-29T16:33:47.489Z,96.59
2022-11-29T16:36:19.372Z,96.59
2022-11-29T16:38:51.383Z,96.76
2022-11-29T16:41:22.268Z,96.69
2022-11-29T16:43:55.317Z,96.89
2022-11-29T16:46:21.731Z,97.03
2022-11-29T16:48:49.188Z,97.15
2022-11-29T16:51:23.432Z,97.27
2022-11-29T16:53:53.685Z,96.99
2022-11-29T16:56:25.221Z,97.27
2022-11-29T16:59:20.971Z,97.29
2022-11-29T17:01:48.843Z,97.00
2022-11-29T17:04:23.413Z,96.96
2022-11-29T17:06:51.931Z,96.71
2022-11-29T17:09:22.291Z,96.56
2022-11-29T17:11:48.905Z,96.84
2022-11-29T17:14:15.349Z,96.84
2022-11-29T17:16:41.958Z,96.86
2022-11-29T17:19:11.640Z,96.73
2022-11-29T17:21:38.150Z,96.55
2022-11-29T17:24:05.111Z,96.43
2022-11-29T17:26:31.522Z,96.44
2022-11-29T17:28:57.952Z,96.55
2022-11-29T17:31:24.449Z,96.49
2022-11-29T17:33:51.210Z,96.42
2022-11-29T17:36:19.633Z,96.61
2022-11-29T17:38:46.544Z,96.76
2022-11-29T17:41:20.780Z,97.11
2022-11-29T17:43:47.629Z,96.85
2022-11-29T17:46:16.523Z,96.94
2022-11-29T17:48:46.065Z,96.96
2022-11-29T17:51:43.636Z,97.07
2022-11-29T17:54:04.461Z,96.92
2022-11-29T17:56:31.317Z,96.77
2022-11-29T17:59:00.123Z,96.62
2022-11-29T18:01:28.765Z,96.74
2022-11-29T18:03:58.197Z,96.90
2022-11-29T18:06:25.642Z,96.76
2022-11-29T18:08:54.767Z,96.62
2022-11-29T18:11:40.332Z,96.51
2022-11-29T18:14:13.109Z,96.57
2022-11-29T18:16:39.642Z,96.85
2022-11-29T18:19:08.863Z,96.43
2022-11-29T18:21:35.638Z,96.38
2022-11-29T18:24:03.687Z,96.39
2022-11-29T18:26:30.913Z,96.45
2022-11-29T18:28:58.194Z,96.66
2022-11-29T18:31:28.211Z,96.89
2022-11-29T18:33:57.326Z,97.07
2022-11-29T18:36:26.311Z,97.35
2022-11-29T18:39:04.355Z,97.41
2022-11-29T18:41:31.204Z,97.06
2022-11-29T18:44:05.421Z,96.94
2022-11-29T18:46:32.783Z,97.08
2022-11-29T18:49:00.853Z,96.94
2022-11-29T18:51:28.573Z,97.03
2022-11-29T18:53:55.218Z,96.92
2022-11-29T18:56:23.674Z,96.99
2022-11-29T18:58:58.350Z,96.80
2022-11-29T19:01:27.186Z,96.90
2022-11-29T19:03:55.064Z,96.95
2022-11-29T19:06:23.812Z,96.84
2022-11-29T19:08:51.742Z,96.72
2022-11-29T19:11:21.289Z,96.87
2022-11-29T19:13:51.812Z,96.94
2022-11-29T19:16:19.112Z,96.66
2022-11-29T19:18:45.935Z,96.85
2022-11-29T19:21:14.277Z,96.99
2022-11-29T19:23:41.936Z,97.03
2022-11-29T19:26:13.471Z,96.98
2022-11-29T19:28:41.854Z,96.90
2022-11-29T19:31:08.964Z,97.13
2022-11-29T19:33:36.278Z,96.77
2022-11-29T19:36:32.379Z,96.43
2022-11-29T19:39:02.059Z,96.59
2022-11-29T19:41:33.340Z,96.26
2022-11-29T19:44:02.093Z,96.55
2022-11-29T19:46:34.495Z,96.84
2022-11-29T19:49:02.131Z,96.68
2022-11-29T19:51:29.351Z,96.77
2022-11-29T19:53:57.757Z,96.79
2022-11-29T19:56:24.499Z,96.85
2022-11-29T19:58:51.250Z,96.98
2022-11-29T20:01:19.767Z,96.92
2022-11-29T20:03:46.269Z,97.04
2022-11-29T20:06:13.748Z,96.86
2022-11-29T20:08:40.793Z,96.96
2022-11-29T20:11:09.605Z,96.99
2022-11-29T20:13:37.329Z,96.88
2022-11-29T20:16:24.074Z,97.09
2022-11-29T20:18:51.545Z,97.04
2022-11-29T20:21:25.638Z,97.16
2022-11-29T20:23:57.225Z,96.97
2022-11-29T20:26:23.806Z,97.08
2022-11-29T20:28:50.421Z,96.87
2022-11-29T20:31:21.189Z,96.76
2022-11-29T20:33:48.011Z,96.79
2022-11-29T20:36:32.979Z,96.95
2022-11-29T20:39:39.075Z,97.06
2022-11-29T20:42:40.027Z,97.27
2022-11-29T20:45:09.319Z,97.04
2022-11-29T20:47:44.867Z,97.08
2022-11-29T20:50:24.071Z,96.87
2022-11-29T20:53:05.761Z,96.69
2022-11-29T20:55:32.306Z,96.62
2022-11-29T20:57:58.776Z,96.56
2022-11-29T21:00:25.550Z,96.77
2022-11-29T21:02:51.986Z,96.98
2022-11-29T21:05:18.685Z,97.16
2022-11-29T21:07:45.767Z,97.23
2022-11-29T21:10:14.706Z,97.26
2022-11-29T21:12:42.681Z,97.16
2022-11-29T21:15:10.867Z,97.15
2022-11-29T21:17:37.486Z,97.34
2022-11-29T21:20:04.422Z,97.27
2022-11-29T21:22:47.454Z,97.32
2022-11-29T21:25:27.401Z,97.15
2022-11-29T21:27:54.973Z,97.47
2022-11-29T21:30:23.536Z,97.17
2022-11-29T21:32:50.783Z,97.06
2022-11-29T21:35:17.446Z,96.84
2022-11-29T21:37:44.282Z,96.92
2022-11-29T21:40:12.507Z,96.69
2022-11-29T21:42:39.027Z,96.95
2022-11-29T21:45:09.300Z,96.83
2022-11-29T21:47:42.961Z,96.65
2022-11-29T21:50:09.855Z,96.48
2022-11-29T21:52:36.472Z,96.63
2022-11-29T21:55:03.470Z,96.47
2022-11-29T21:57:29.928Z,96.57
2022-11-29T21:59:56.358Z,96.69
2022-11-29T22:02:22.948Z,96.53
2022-11-29T22:04:49.553Z,96.46
2022-11-29T22:07:16.202Z,96.63
2022-11-29T22:09:42.652Z,96.70
2022-11-29T22:12:26.230Z,96.82
2022-11-29T22:14:55.509Z,96.70
2022-11-29T22:17:21.919Z,96.99
2022-11-29T22:19:48.302Z,96.93
2022-11-29T22:22:14.777Z,97.16
2022-11-29T22:24:41.327Z,96.88
2022-11-29T22:27:07.749Z,97.05
2022-11-29T22:29:34.159Z,97.34
2022-11-29T22:32:01.087Z,97.30
2022-11-29T22:34:27.771Z,97.40
2022-11-29T22:36:54.382Z,97.20
2022-11-29T22:39:22.442Z,97.11
2022-11-29T22:41:53.872Z,97.13
2022-11-29T22:44:21.425Z,97.13
2022-11-29T22:46:47.944Z,97.15
2022-11-29T22:49:14.516Z,97.45
2022-11-29T22:51:40.975Z,97.21
2022-11-29T22:54:09.331Z,97.13
2022-11-29T22:56:40.417Z,97.18
2022-11-29T22:59:06.841Z,97.24
2022-11-29T23:01:34.777Z,97.10
2022-11-29T23:04:03.974Z,97.22
2022-11-29T23:06:33.200Z,97.36
2022-11-29T23:09:07.327Z,97.27
2022-11-29T23:11:33.810Z,97.08
2022-11-29T23:14:00.252Z,97.25
2022-11-29T23:16:28.665Z,97.21
2022-11-29T23:18:58.036Z,97.20
2022-11-29T23:21:26.017Z,96.95
2022-11-29T23:23:56.289Z,96.73
2022-11-29T23:26:39.475Z,96.93
2022-11-29T23:29:07.862Z,97.13
2022-11-29T23:31:34.493Z,96.99
2022-11-29T23:34:02.129Z,97.33
2022-11-29T23:36:28.557Z,97.40
2022-11-29T23:38:55.022Z,97.14
2022-11-29T23:41:21.483Z,97.39
2022-11-29T23:43:47.879Z,96.98
2022-11-29T23:46:17.001Z,97.21
2022-11-29T23:48:43.748Z,97.02
2022-11-29T23:51:10.923Z,96.78
2022-11-29T23:53:37.466Z,96.96
2022-11-29T23:56:10.208Z,96.82
2022-11-29T23:58:36.813Z,97.04
